This is the latest recevied weather packets stored in our database for station/object WX2NJ. If no packets are shown the sender has not sent any weather packets the latest 10 day(s).
| Time | Temp. | Humidity | Pressure | Rain* | Wind** | Luminosity | Snow |
|---|---|---|---|---|---|---|---|
| 1777554195 | 10.56° C | 92% | 1010.9 hPa | 0 mm | - | 71 W/m² | - |
| 1777553892 | 10.56° C | 92% | 1010.9 hPa | 0 mm | - | 71 W/m² | - |
| 1777553588 | 10.56° C | 92% | 1010.8 hPa | 0 mm | - | 79 W/m² | - |
| 1777553284 | 10.56° C | 92% | 1010.6 hPa | 0 mm | - | 103 W/m² | - |
| 1777552980 | 10° C | 92% | 1010.9 hPa | 0 mm | - | 75 W/m² | - |
| 1777552680 | 10.56° C | 92% | 1011.2 hPa | 0 mm | - | 51 W/m² | - |
| 1777552377 | 10.56° C | 92% | 1011.2 hPa | 0 mm | - | 48 W/m² | - |
| 1777552073 | 10° C | 92% | 1011.2 hPa | 0 mm | - | 42 W/m² | - |
| 1777551771 | 10° C | 92% | 1011.1 hPa | 0 mm | - | 49 W/m² | - |
| 1777551468 | 10° C | 92% | 1011.1 hPa | 0 mm | - | 43 W/m² | - |
| 1777551164 | 10° C | 92% | 1011 hPa | 0 mm | - | 44 W/m² | - |
| 1777550862 | 10° C | 92% | 1011.1 hPa | 0 mm | - | 50 W/m² | - |
| 1777550558 | 10° C | 92% | 1011.2 hPa | 0 mm | - | 42 W/m² | - |
| 1777550254 | 10° C | 92% | 1011.1 hPa | 0 mm | - | 44 W/m² | - |
| 1777549951 | 10° C | 92% | 1011.4 hPa | 0 mm | - | 45 W/m² | - |
| 1777549647 | 10° C | 92% | 1011.3 hPa | 0 mm | - | 48 W/m² | - |
| 1777549342 | 10° C | 92% | 1011.3 hPa | 0 mm | - | 34 W/m² | - |
| 1777549041 | 10° C | 92% | 1011.2 hPa | 0 mm | - | 31 W/m² | - |
| 1777548736 | 10° C | 92% | 1011.2 hPa | 0 mm | - | 27 W/m² | - |
| 1777548434 | 10° C | 92% | 1011.2 hPa | 0 mm | - | 28 W/m² | - |
| 1777548130 | 10° C | 92% | 1011.1 hPa | 0 mm | - | 27 W/m² | - |
| 1777547826 | 10° C | 92% | 1010.9 hPa | 0 mm | - | 20 W/m² | - |
| 1777547522 | 10° C | 92% | 1011.1 hPa | 0 mm | - | 26 W/m² | - |
| 1777547221 | 10° C | 92% | 1011.1 hPa | 0 mm | - | 20 W/m² | - |
| 1777546917 | 10° C | 92% | 1011.1 hPa | 0 mm | - | 23 W/m² | - |
* Rain latest hour (hover to see other rain measurements)
** Current wind speed in m/s (hover to see current wind gust speed)